Time;durP1;ratioP1;P1;durP2;ratioP2;P2;SDS_P1;SDS_P2;PMS_P1;PMS_P2;Temp;Humidity;BMP_temperature;BMP_pressure;BME280_temperature;BME280_humidity;BME280_pressure;Samples;Min_cycle;Max_cycle;Signal;HPM_P1;HPM_P2
2022/04/16 00:02:07;;;;;;;17.30;8.27;;;;;;;4.18;100.00;103257.78;4972210;28;20054;-75
2022/04/16 00:04:36;;;;;;;19.60;8.77;;;;;;;4.11;100.00;103256.25;4942012;28;20089;-76
2022/04/16 00:07:03;;;;;;;13.60;7.88;;;;;;;4.03;100.00;103259.06;4942790;28;20046;-75
2022/04/16 00:09:29;;;;;;;18.08;9.15;;;;;;;4.01;100.00;103273.84;4952129;28;20145;-76
2022/04/16 00:11:55;;;;;;;16.98;8.40;;;;;;;3.84;100.00;103274.28;4945233;28;20066;-76
2022/04/16 00:14:21;;;;;;;19.00;9.60;;;;;;;3.62;100.00;103266.19;4944498;28;20825;-75
2022/04/16 00:16:47;;;;;;;16.25;8.73;;;;;;;3.68;100.00;103270.38;4959227;28;20055;-76
2022/04/16 00:19:13;;;;;;;17.45;9.18;;;;;;;3.68;100.00;103280.75;4950687;28;20181;-76
2022/04/16 00:21:39;;;;;;;14.60;8.95;;;;;;;3.64;100.00;103282.59;4944901;29;20035;-76
2022/04/16 00:24:05;;;;;;;15.20;8.98;;;;;;;3.67;100.00;103279.03;4936183;28;20031;-75
2022/04/16 00:26:31;;;;;;;15.70;8.70;;;;;;;3.62;100.00;103278.34;4944740;28;20035;-77
2022/04/16 00:28:59;;;;;;;21.90;9.63;;;;;;;3.53;100.00;103276.81;4954803;28;20063;-75
2022/04/16 00:31:28;;;;;;;15.55;7.53;;;;;;;3.60;100.00;103286.16;4959083;28;20471;-76
2022/04/16 00:33:54;;;;;;;13.00;7.40;;;;;;;3.62;100.00;103288.72;4960765;28;20164;-76
2022/04/16 00:36:20;;;;;;;11.43;6.40;;;;;;;3.64;100.00;103280.00;4961005;28;20083;-75
2022/04/16 00:38:46;;;;;;;13.35;6.13;;;;;;;3.57;100.00;103275.00;4931600;28;20053;-76
2022/04/16 00:41:13;;;;;;;12.75;5.90;;;;;;;3.50;100.00;103267.38;4945629;28;20026;-76
2022/04/16 00:43:39;;;;;;;12.35;5.75;;;;;;;3.46;100.00;103280.44;4928499;28;20053;-75
2022/04/16 00:46:05;;;;;;;13.15;5.45;;;;;;;3.46;100.00;103278.69;4964665;28;20031;-76
2022/04/16 00:48:30;;;;;;;8.25;4.90;;;;;;;3.43;100.00;103288.31;4942976;28;20054;-76
2022/04/16 00:50:56;;;;;;;12.57;6.18;;;;;;;3.36;100.00;103289.34;4965093;28;20110;-77
2022/04/16 00:53:25;;;;;;;12.90;5.35;;;;;;;3.33;100.00;103289.41;4962853;28;20062;-77
2022/04/16 00:55:51;;;;;;;10.52;5.40;;;;;;;3.24;100.00;103299.13;4942188;28;20057;-78
2022/04/16 00:58:17;;;;;;;10.95;5.40;;;;;;;3.17;100.00;103294.13;4942711;28;20483;-77
2022/04/16 01:00:43;;;;;;;13.98;6.03;;;;;;;2.97;100.00;103303.19;4946017;28;20047;-77
2022/04/16 01:03:09;;;;;;;9.43;5.50;;;;;;;2.80;100.00;103300.97;4949597;28;20042;-77
2022/04/16 01:05:37;;;;;;;9.48;5.57;;;;;;;2.81;100.00;103307.88;4949451;28;20042;-77
2022/04/16 01:08:04;;;;;;;11.15;5.05;;;;;;;2.79;100.00;103304.47;4950195;28;20667;-76
2022/04/16 01:10:31;;;;;;;9.85;4.95;;;;;;;2.80;100.00;103316.53;4960212;28;20584;-77
2022/04/16 01:12:59;;;;;;;8.57;4.63;;;;;;;2.74;100.00;103314.06;4950710;28;20133;-76
2022/04/16 01:15:29;;;;;;;8.52;4.57;;;;;;;2.69;100.00;103305.53;4941559;28;20805;-77
2022/04/16 01:17:56;;;;;;;9.05;4.72;;;;;;;2.57;100.00;103305.81;4946217;28;20039;-75
2022/04/16 01:20:23;;;;;;;9.40;4.43;;;;;;;2.46;100.00;103304.28;4953224;28;20045;-75
2022/04/16 01:22:50;;;;;;;12.68;4.53;;;;;;;2.46;100.00;103303.44;4949111;28;20168;-76
2022/04/16 01:25:16;;;;;;;9.35;4.30;;;;;;;2.38;100.00;103316.53;4958733;28;20054;-76
2022/04/16 01:27:46;;;;;;;9.73;4.35;;;;;;;2.19;100.00;103315.19;4963162;28;20054;-75
2022/04/16 01:30:13;;;;;;;8.10;4.57;;;;;;;2.03;100.00;103320.63;4963933;28;20674;-76
2022/04/16 01:32:41;;;;;;;9.63;5.10;;;;;;;1.90;100.00;103321.75;4952912;28;20157;-76
2022/04/16 01:35:07;;;;;;;12.00;4.82;;;;;;;1.83;100.00;103325.31;4968684;28;20039;-76
2022/04/16 01:37:35;;;;;;;7.50;4.55;;;;;;;1.81;100.00;103327.06;4953107;28;20662;-75
2022/04/16 01:40:02;;;;;;;10.52;4.80;;;;;;;1.75;100.00;103323.72;4953596;28;20034;-76
2022/04/16 01:42:29;;;;;;;12.15;5.03;;;;;;;1.72;100.00;103325.50;4958108;28;20768;-77
2022/04/16 01:44:56;;;;;;;12.38;5.13;;;;;;;1.54;100.00;103321.47;4947018;28;20643;-75
2022/04/16 01:47:22;;;;;;;10.18;4.97;;;;;;;1.52;100.00;103328.41;4971058;28;20038;-75
2022/04/16 01:49:49;;;;;;;16.02;4.40;;;;;;;1.36;100.00;103340.75;4952816;28;20065;-76
2022/04/16 01:52:15;;;;;;;10.88;4.47;;;;;;;1.22;100.00;103338.34;4958279;28;20031;-76
2022/04/16 01:54:41;;;;;;;8.63;4.45;;;;;;;1.10;100.00;103329.03;4965281;28;20122;-75
2022/04/16 01:57:07;;;;;;;11.98;5.07;;;;;;;1.16;100.00;103336.69;4969484;28;20106;-75
2022/04/16 01:59:33;;;;;;;12.52;5.10;;;;;;;1.20;100.00;103336.66;4952799;28;20450;-75
2022/04/16 02:01:59;;;;;;;12.70;4.95;;;;;;;1.21;100.00;103338.38;4965302;28;20587;-75
2022/04/16 02:04:26;;;;;;;10.38;5.07;;;;;;;1.20;100.00;103331.50;4964749;28;20042;-75
2022/04/16 02:06:52;;;;;;;14.38;5.00;;;;;;;1.12;100.00;103335.03;4965903;28;20570;-76
2022/04/16 02:09:18;;;;;;;12.07;5.22;;;;;;;1.05;100.00;103332.56;4959670;28;20039;-76
2022/04/16 02:11:44;;;;;;;9.13;5.00;;;;;;;1.02;100.00;103341.22;4950884;28;20043;-76
2022/04/16 02:14:09;;;;;;;18.25;5.97;;;;;;;1.02;100.00;103341.22;4952801;28;20651;-75
2022/04/16 02:16:38;;;;;;;17.92;5.50;;;;;;;1.05;100.00;103337.72;4960686;28;20038;-75
2022/04/16 02:19:03;;;;;;;11.40;5.45;;;;;;;1.05;100.00;103336.00;4966408;28;20027;-76
2022/04/16 02:21:32;;;;;;;9.73;5.03;;;;;;;1.07;100.00;103333.41;4960447;28;20067;-76
2022/04/16 02:23:58;;;;;;;13.40;5.65;;;;;;;1.06;100.00;103326.53;4961750;28;20046;-75
2022/04/16 02:26:26;;;;;;;10.48;5.45;;;;;;;1.03;100.00;103336.91;4962678;28;20038;-75
2022/04/16 02:28:51;;;;;;;9.23;5.55;;;;;;;0.92;100.00;103325.00;4958940;28;20047;-76
2022/04/16 02:31:17;;;;;;;13.25;5.72;;;;;;;0.91;100.00;103333.59;4946077;28;20097;-76
2022/04/16 02:33:43;;;;;;;9.82;6.15;;;;;;;0.87;100.00;103329.34;4947418;28;20079;-76
2022/04/16 02:36:11;;;;;;;10.13;6.00;;;;;;;0.83;100.00;103329.41;4983066;28;20116;-75
2022/04/16 02:38:40;;;;;;;11.52;6.00;;;;;;;0.75;100.00;103332.97;4965026;28;20035;-76
2022/04/16 02:41:06;;;;;;;10.82;5.35;;;;;;;0.72;100.00;103340.75;4952031;28;20126;-75
2022/04/16 02:43:31;;;;;;;10.07;5.50;;;;;;;0.62;100.00;103339.13;4948832;28;20674;-75
2022/04/16 02:48:41;;;;;;;12.95;6.00;;;;;;;0.44;100.00;103355.72;4955701;28;20501;-76
2022/04/16 02:51:08;;;;;;;14.35;6.15;;;;;;;0.34;100.00;103354.97;4950851;28;20058;-77
2022/04/16 02:53:34;;;;;;;13.27;6.07;;;;;;;0.33;100.00;103358.41;4949352;28;20078;-77
2022/04/16 02:56:02;;;;;;;10.80;5.80;;;;;;;0.31;100.00;103364.47;4963413;28;20050;-76
2022/04/16 02:58:28;;;;;;;10.57;5.97;;;;;;;0.23;100.00;103353.34;4950063;28;20162;-75
2022/04/16 03:00:54;;;;;;;9.48;5.75;;;;;;;0.20;100.00;103356.81;4945298;28;20133;-76
2022/04/16 03:03:22;;;;;;;10.45;5.90;;;;;;;0.15;100.00;103351.72;4927749;28;20081;-76
2022/04/16 03:05:48;;;;;;;16.25;6.47;;;;;;;0.14;100.00;103356.88;4952825;28;20050;-75
2022/04/16 03:08:15;;;;;;;9.52;5.50;;;;;;;0.07;100.00;103352.66;4963185;28;20034;-75
2022/04/16 03:10:41;;;;;;;12.07;6.00;;;;;;;0.08;100.00;103356.94;4963213;28;20229;-75
2022/04/16 03:13:07;;;;;;;13.05;5.80;;;;;;;0.13;100.00;103371.53;4975019;28;20037;-76
2022/04/16 03:18:18;;;;;;;11.30;6.00;;;;;;;0.09;100.00;103371.53;4963056;28;20038;-74
2022/04/16 03:20:44;;;;;;;9.52;6.00;;;;;;;0.08;100.00;103373.28;4965948;28;20050;-76
2022/04/16 03:23:10;;;;;;;10.93;5.95;;;;;;;0.07;100.00;103381.03;4948805;28;20035;-75
2022/04/16 03:25:40;;;;;;;13.75;5.63;;;;;;;-0.03;100.00;103375.94;4956547;28;20043;-75
2022/04/16 03:28:06;;;;;;;10.57;5.50;;;;;;;0.01;100.00;103379.38;4965112;28;20567;-75
2022/04/16 03:30:32;;;;;;;10.27;5.53;;;;;;;-0.02;100.00;103374.22;4964203;28;20046;-75
2022/04/16 03:32:58;;;;;;;10.65;5.30;;;;;;;-0.03;100.00;103381.09;4946807;28;20490;-75
2022/04/16 03:35:24;;;;;;;11.00;5.72;;;;;;;0.00;100.00;103369.94;4945336;28;20101;-75
2022/04/16 03:37:50;;;;;;;15.18;5.85;;;;;;;0.05;100.00;103382.78;4959905;28;20039;-75
2022/04/16 03:40:16;;;;;;;9.70;5.97;;;;;;;0.06;100.00;103379.31;4948576;28;20463;-74
2022/04/16 03:42:49;;;;;;;12.18;5.97;;;;;;;0.02;100.00;103378.50;4931000;28;20054;-74
2022/04/16 03:45:22;;;;;;;14.13;6.07;;;;;;;0.02;100.00;103375.94;4975890;28;20045;-75
2022/04/16 03:47:49;;;;;;;11.75;6.15;;;;;;;0.01;100.00;103373.34;4949493;28;20060;-75
2022/04/16 03:50:16;;;;;;;9.40;6.03;;;;;;;-0.02;100.00;103372.50;4961258;28;20548;-76
2022/04/16 03:52:43;;;;;;;13.02;6.05;;;;;;;-0.09;100.00;103370.84;4949855;28;20806;-75
2022/04/16 04:00:46;;;;;;;10.80;6.07;;;;;;;-0.28;100.00;103365.00;4961345;28;20377;-76
2022/04/16 04:03:13;;;;;;;11.38;6.57;;;;;;;-0.25;100.00;103372.69;4962460;28;20878;-74
2022/04/16 04:05:40;;;;;;;10.68;6.57;;;;;;;-0.29;100.00;103371.00;4947184;28;20051;-75
2022/04/16 04:08:06;;;;;;;12.48;5.85;;;;;;;-0.33;100.00;103371.06;4956195;28;20499;-76
2022/04/16 04:10:32;;;;;;;11.82;5.82;;;;;;;-0.31;100.00;103377.06;4930134;28;20116;-75
2022/04/16 04:12:58;;;;;;;9.98;6.07;;;;;;;-0.36;100.00;103383.97;4962152;28;20377;-75
2022/04/16 04:15:24;;;;;;;13.27;5.57;;;;;;;-0.38;100.00;103388.28;4964089;28;20068;-76
2022/04/16 04:17:50;;;;;;;11.55;5.65;;;;;;;-0.43;100.00;103390.91;4948122;28;20118;-76
2022/04/16 04:20:16;;;;;;;17.33;5.95;;;;;;;-0.48;100.00;103401.22;4981707;28;20097;-73
2022/04/16 04:22:42;;;;;;;11.05;5.32;;;;;;;-0.53;100.00;103402.97;4946935;28;20532;-74
2022/04/16 04:25:08;;;;;;;9.60;5.22;;;;;;;-0.49;100.00;103407.25;4977797;28;20389;-75
2022/04/16 04:27:33;;;;;;;10.73;5.93;;;;;;;-0.50;100.00;103392.66;4954962;28;20515;-74
2022/04/16 04:30:02;;;;;;;12.40;5.65;;;;;;;-0.46;100.00;103399.50;4965951;28;20137;-76
2022/04/16 04:32:28;;;;;;;12.70;5.40;;;;;;;-0.52;100.00;103389.22;4938792;28;20058;-74
2022/04/16 04:34:54;;;;;;;8.88;4.85;;;;;;;-0.53;100.00;103381.50;4944342;28;20484;-76
2022/04/16 04:37:20;;;;;;;11.15;5.28;;;;;;;-0.47;100.00;103404.66;4953378;28;20037;-75
2022/04/16 04:39:46;;;;;;;9.95;5.53;;;;;;;-0.46;100.00;103393.47;4948710;28;20440;-77
2022/04/16 04:42:12;;;;;;;10.88;5.50;;;;;;;-0.45;100.00;103397.78;4949535;28;20082;-75
2022/04/16 04:44:39;;;;;;;9.43;5.38;;;;;;;-0.30;100.00;103389.94;4935065;28;20067;-76
2022/04/16 04:47:05;;;;;;;10.90;4.95;;;;;;;-0.10;100.00;103394.06;4959896;28;20035;-77
2022/04/16 04:49:31;;;;;;;10.90;5.50;;;;;;;0.03;100.00;103390.53;4965821;28;20035;-76
2022/04/16 04:51:56;;;;;;;8.40;4.97;;;;;;;0.06;100.00;103403.41;4965497;28;20133;-76
2022/04/16 04:54:22;;;;;;;12.23;5.13;;;;;;;0.05;100.00;103398.25;4932436;28;20480;-76
2022/04/16 04:56:48;;;;;;;12.02;5.00;;;;;;;0.04;100.00;103401.69;4948967;28;20117;-75
2022/04/16 04:59:13;;;;;;;7.88;4.55;;;;;;;0.06;100.00;103410.28;4969369;28;20035;-75
2022/04/16 05:01:39;;;;;;;8.50;4.47;;;;;;;0.10;100.00;103406.81;4968796;28;20396;-76
2022/04/16 05:04:05;;;;;;;11.35;4.97;;;;;;;0.21;100.00;103410.16;4948903;28;20400;-77
2022/04/16 05:06:31;;;;;;;11.68;4.93;;;;;;;0.29;100.00;103421.28;4980598;28;20049;-76
2022/04/16 05:08:56;;;;;;;7.68;4.78;;;;;;;0.43;100.00;103420.28;4965629;28;20094;-75
2022/04/16 05:11:22;;;;;;;9.85;4.22;;;;;;;0.48;100.00;103418.50;4950751;28;20043;-74
2022/04/16 05:13:48;;;;;;;8.80;4.20;;;;;;;0.57;100.00;103428.75;4951717;28;20423;-75
2022/04/16 05:16:13;;;;;;;11.70;4.30;;;;;;;0.72;100.00;103433.75;4967756;28;20042;-75
2022/04/16 05:18:41;;;;;;;10.23;4.20;;;;;;;0.88;100.00;103437.00;4948443;28;20038;-74
2022/04/16 05:21:06;;;;;;;8.32;4.13;;;;;;;0.92;100.00;103436.13;4965277;28;20041;-75
2022/04/16 05:23:32;;;;;;;9.07;4.07;;;;;;;0.97;100.00;103433.47;4978515;28;20046;-76
2022/04/16 05:25:58;;;;;;;8.85;4.18;;;;;;;1.08;100.00;103438.53;4939129;28;20500;-77
2022/04/16 05:28:23;;;;;;;9.63;3.47;;;;;;;1.24;100.00;103447.78;4967873;28;20763;-74
2022/04/16 05:30:54;;;;;;;9.20;3.90;;;;;;;1.46;100.00;103448.34;4951546;28;20069;-75
2022/04/16 05:36:08;;;;;;;6.10;2.97;;;;;;;1.82;100.00;103451.28;4963199;28;20039;-74
2022/04/16 05:38:33;;;;;;;6.85;3.50;;;;;;;1.97;100.00;103451.94;4966308;28;20150;-75
2022/04/16 05:40:59;;;;;;;4.53;2.47;;;;;;;2.11;100.00;103458.59;4962696;28;20797;-75
2022/04/16 05:43:25;;;;;;;8.90;3.03;;;;;;;2.24;100.00;103456.69;4981699;28;20023;-75
2022/04/16 05:45:52;;;;;;;5.15;2.63;;;;;;;2.35;100.00;103461.66;4965453;28;20544;-76
2022/04/16 05:48:18;;;;;;;7.50;2.72;;;;;;;2.51;100.00;103459.66;4951757;28;20067;-76
2022/04/16 05:50:45;;;;;;;4.50;2.38;;;;;;;2.67;100.00;103462.81;4953766;28;20134;-76
2022/04/16 05:53:13;;;;;;;4.53;2.40;;;;;;;2.89;100.00;103476.22;4936776;28;20548;-77
2022/04/16 05:55:40;;;;;;;5.03;2.20;;;;;;;2.97;100.00;103468.31;4958692;28;20038;-77
2022/04/16 05:58:06;;;;;;;3.38;2.10;;;;;;;3.05;100.00;103463.81;4947989;28;20523;-75
2022/04/16 06:00:33;;;;;;;3.28;2.20;;;;;;;3.23;100.00;103472.97;4940828;28;20456;-75
2022/04/16 06:02:59;;;;;;;4.57;2.22;;;;;;;3.28;100.00;103474.56;4938257;28;20382;-76
2022/04/16 06:05:24;;;;;;;6.15;2.30;;;;;;;3.33;100.00;103471.88;4948888;28;20045;-76
2022/04/16 06:07:50;;;;;;;7.72;2.13;;;;;;;3.48;100.00;103481.06;4949444;28;20098;-76
2022/04/16 06:10:16;;;;;;;5.88;1.92;;;;;;;3.63;100.00;103477.28;4968497;28;20034;-76
2022/04/16 06:12:42;;;;;;;8.93;2.30;;;;;;;3.83;100.00;103467.31;4948341;28;20034;-76
2022/04/16 06:15:08;;;;;;;2.70;1.77;;;;;;;3.96;100.00;103470.47;4961288;28;20031;-77
2022/04/16 06:17:35;;;;;;;4.22;2.50;;;;;;;4.11;100.00;103464.06;4952354;28;20038;-76
2022/04/16 06:20:00;;;;;;;3.08;1.88;;;;;;;4.20;100.00;103475.94;4951436;28;20042;-76
2022/04/16 06:22:26;;;;;;;6.40;2.50;;;;;;;4.32;100.00;103469.59;4967102;28;20085;-77
2022/04/16 06:24:52;;;;;;;5.55;1.98;;;;;;;4.48;100.00;103470.91;4959788;28;20038;-77
2022/04/16 06:27:17;;;;;;;6.85;1.95;;;;;;;4.65;100.00;103475.66;4961922;28;20041;-75
2022/04/16 06:29:43;;;;;;;2.85;1.30;;;;;;;4.72;100.00;103484.16;4952503;28;20109;-76
2022/04/16 06:32:08;;;;;;;4.88;1.75;;;;;;;4.83;100.00;103475.16;4949989;28;20823;-76
2022/04/16 06:34:34;;;;;;;2.90;1.65;;;;;;;4.90;98.79;103483.66;4959851;28;20114;-77
2022/04/16 06:36:59;;;;;;;4.10;1.45;;;;;;;5.02;98.93;103488.50;4961607;28;21871;-75
2022/04/16 06:39:25;;;;;;;2.85;1.60;;;;;;;5.17;98.50;103486.38;4947555;28;20102;-76
2022/04/16 06:41:51;;;;;;;4.28;1.48;;;;;;;5.28;96.01;103496.50;4967688;28;20042;-77
2022/04/16 06:44:20;;;;;;;3.38;1.00;;;;;;;5.36;94.75;103491.91;4933850;28;20181;-77
2022/04/16 06:46:46;;;;;;;3.00;0.90;;;;;;;5.39;92.30;103494.44;4933085;28;20137;-77
2022/04/16 06:49:12;;;;;;;3.20;1.40;;;;;;;5.52;90.17;103497.50;4944699;28;20477;-76
2022/04/16 06:51:37;;;;;;;2.70;1.38;;;;;;;5.60;90.06;103498.13;4961027;28;20050;-75
2022/04/16 06:54:03;;;;;;;3.17;0.88;;;;;;;5.69;87.84;103496.97;4949704;28;20038;-76
2022/04/16 06:56:28;;;;;;;2.15;0.90;;;;;;;5.68;87.89;103503.09;4932166;28;20837;-76
2022/04/16 06:58:54;;;;;;;2.03;0.93;;;;;;;5.85;88.21;103504.28;4949237;28;20126;-77
2022/04/16 07:01:20;;;;;;;2.85;0.82;;;;;;;6.03;85.40;103504.66;4965176;28;20035;-76
2022/04/16 07:03:45;;;;;;;2.33;0.73;;;;;;;5.96;85.79;103508.34;4965488;28;20134;-75
2022/04/16 07:06:11;;;;;;;1.75;0.77;;;;;;;6.07;83.56;103514.06;4968572;28;20084;-74
2022/04/16 07:08:36;;;;;;;2.33;0.80;;;;;;;6.19;82.54;103516.25;4946700;28;20035;-76
2022/04/16 07:11:02;;;;;;;1.25;0.68;;;;;;;6.17;82.59;103510.25;4980738;28;20551;-76
2022/04/16 07:13:28;;;;;;;2.13;0.90;;;;;;;6.26;81.05;103513.47;4980493;28;20061;-76
2022/04/16 07:15:53;;;;;;;1.98;0.95;;;;;;;6.37;80.42;103520.03;4949824;28;20372;-76
2022/04/16 07:18:20;;;;;;;7.03;1.13;;;;;;;6.23;81.09;103519.63;4931206;28;20035;-75
2022/04/16 07:20:47;;;;;;;1.75;0.80;;;;;;;6.38;81.21;103518.25;4951766;28;20531;-77
2022/04/16 07:23:12;;;;;;;2.60;0.90;;;;;;;6.42;78.79;103519.84;4965824;28;20500;-76
2022/04/16 07:25:38;;;;;;;1.75;0.75;;;;;;;6.61;78.14;103515.75;4935757;28;20046;-76
2022/04/16 07:28:04;;;;;;;2.30;0.73;;;;;;;6.78;78.67;103517.75;4951381;28;20034;-75
2022/04/16 07:30:30;;;;;;;1.80;0.80;;;;;;;6.96;76.80;103524.06;4949463;28;20070;-75
2022/04/16 07:32:55;;;;;;;1.50;0.88;;;;;;;7.02;75.66;103531.69;4962902;28;20027;-75
2022/04/16 07:35:21;;;;;;;1.00;0.73;;;;;;;7.02;73.90;103531.69;4967179;28;20043;-75
2022/04/16 07:37:46;;;;;;;2.63;0.93;;;;;;;7.08;74.16;103537.59;4936370;28;20046;-75
2022/04/16 07:40:13;;;;;;;6.10;0.90;;;;;;;7.09;75.40;103526.25;4949433;28;20493;-75
2022/04/16 07:42:38;;;;;;;1.50;0.77;;;;;;;7.20;74.61;103543.22;4937674;28;20045;-75
2022/04/16 07:45:05;;;;;;;3.08;1.55;;;;;;;7.33;72.03;103540.19;4966702;28;20041;-75
2022/04/16 07:47:31;;;;;;;1.60;0.82;;;;;;;7.46;72.06;103535.31;4932330;29;20039;-77
2022/04/16 07:49:56;;;;;;;5.43;0.95;;;;;;;7.46;70.09;103540.53;4961720;28;20408;-76
2022/04/16 07:52:25;;;;;;;2.72;0.77;;;;;;;7.46;69.28;103541.41;4952480;28;20121;-75
2022/04/16 07:54:51;;;;;;;3.03;0.70;;;;;;;7.65;68.96;103541.56;4966875;28;20096;-78
2022/04/16 07:57:17;;;;;;;1.90;0.77;;;;;;;7.60;67.65;103543.50;4964550;28;20097;-76
2022/04/16 07:59:43;;;;;;;1.90;0.85;;;;;;;7.73;66.03;103544.72;4947168;28;20038;-77
2022/04/16 08:02:08;;;;;;;4.28;1.80;;;;;;;7.79;66.88;103547.09;4955721;28;20041;-76
2022/04/16 08:04:34;;;;;;;21.40;7.63;;;;;;;7.83;67.75;103558.28;4958625;28;20036;-76
2022/04/16 08:07:01;;;;;;;6.47;1.90;;;;;;;7.71;64.88;103550.94;4938183;28;20054;-76
2022/04/16 08:09:26;;;;;;;4.45;2.55;;;;;;;7.90;67.35;103541.47;4946992;28;20043;-76
2022/04/16 08:11:52;;;;;;;4.90;2.78;;;;;;;8.01;67.10;103542.81;4934214;28;20034;-76
2022/04/16 08:14:20;;;;;;;4.88;2.17;;;;;;;8.15;64.82;103553.56;4948385;28;20489;-76
2022/04/16 08:16:46;;;;;;;3.80;1.38;;;;;;;8.22;63.00;103560.25;4958237;28;20050;-77
2022/04/16 08:19:11;;;;;;;2.97;1.50;;;;;;;8.32;64.67;103555.47;4960446;28;20038;-76
2022/04/16 08:21:37;;;;;;;2.75;1.48;;;;;;;8.43;63.74;103557.69;4939585;28;20062;-75
2022/04/16 08:24:13;;;;;;;3.78;1.05;;;;;;;8.41;63.28;103551.66;4964878;28;20041;-75
2022/04/16 08:26:40;;;;;;;3.65;0.90;;;;;;;8.47;63.45;103562.72;4966209;28;20047;-76
2022/04/16 08:29:05;;;;;;;2.33;1.10;;;;;;;8.61;62.84;103556.94;4960357;28;20041;-75
2022/04/16 08:31:31;;;;;;;3.22;1.08;;;;;;;8.63;60.82;103559.50;4957515;28;20039;-77
2022/04/16 08:33:57;;;;;;;3.63;1.10;;;;;;;8.77;61.83;103563.19;4955881;28;20814;-76
2022/04/16 08:36:22;;;;;;;3.38;0.70;;;;;;;8.89;61.71;103564.44;4938760;28;20366;-76
2022/04/16 08:38:48;;;;;;;1.77;0.90;;;;;;;8.90;60.24;103565.28;4970845;28;20121;-77
2022/04/16 08:41:14;;;;;;;2.25;1.00;;;;;;;8.95;59.45;103572.03;4964952;28;20464;-75
2022/04/16 08:43:44;;;;;;;1.95;0.90;;;;;;;8.88;58.71;103560.13;4983703;28;20775;-77
2022/04/16 08:46:09;;;;;;;2.85;0.60;;;;;;;8.92;58.73;103560.84;4972594;28;20114;-75
2022/04/16 08:48:36;;;;;;;2.22;1.00;;;;;;;8.95;58.08;103560.72;4957066;28;20126;-77
2022/04/16 08:51:02;;;;;;;0.68;0.50;;;;;;;8.86;58.65;103567.19;4961049;28;20053;-75
2022/04/16 08:53:28;;;;;;;0.50;0.50;;;;;;;9.08;58.23;103572.34;4952186;28;20039;-75
2022/04/16 08:55:54;;;;;;;2.45;0.90;;;;;;;9.09;57.55;103571.41;4964356;28;20524;-75
2022/04/16 08:58:20;;;;;;;1.20;0.73;;;;;;;9.23;58.67;103572.56;4954087;28;20049;-75
2022/04/16 09:00:48;;;;;;;0.93;0.60;;;;;;;9.08;57.81;103572.34;4954425;28;20050;-74
2022/04/16 09:03:13;;;;;;;0.60;0.60;;;;;;;9.15;57.27;103570.28;4969163;28;20043;-76
2022/04/16 09:05:39;;;;;;;3.63;0.70;;;;;;;9.06;56.52;103573.31;4960403;28;20061;-76
2022/04/16 09:08:05;;;;;;;2.30;1.02;;;;;;;9.22;61.75;103574.34;4956133;28;20066;-75
2022/04/16 09:10:33;;;;;;;1.85;0.68;;;;;;;9.35;58.15;103572.03;4963647;28;20039;-75
2022/04/16 09:13:01;;;;;;;2.25;0.88;;;;;;;9.44;57.42;103574.25;4985026;28;20035;-75
2022/04/16 09:15:28;;;;;;;2.55;0.60;;;;;;;9.42;55.78;103569.97;4959453;28;20046;-75
2022/04/16 09:18:05;;;;;;;3.20;1.02;;;;;;;9.61;57.29;103570.00;4965825;28;20066;-75
2022/04/16 09:20:35;;;;;;;0.88;0.65;;;;;;;9.82;58.39;103573.41;4942991;28;20568;-75
2022/04/16 09:23:14;;;;;;;1.30;0.70;;;;;;;9.94;55.45;103578.03;4980243;28;20041;-74
2022/04/16 09:25:41;;;;;;;2.10;0.93;;;;;;;10.02;55.27;103572.44;4948743;28;20061;-76
2022/04/16 09:28:08;;;;;;;1.10;0.60;;;;;;;10.05;55.54;103570.50;4987920;28;20122;-74
2022/04/16 09:30:34;;;;;;;1.02;0.73;;;;;;;10.17;56.54;103566.47;4954622;28;20659;-74
2022/04/16 09:33:01;;;;;;;0.85;0.75;;;;;;;9.88;55.41;103563.44;4950183;28;20240;-75
2022/04/16 09:35:37;;;;;;;1.58;0.75;;;;;;;10.06;57.81;103572.22;4979832;28;20035;-74
2022/04/16 09:38:06;;;;;;;1.58;0.80;;;;;;;10.30;57.58;103561.44;4955629;28;20231;-75
2022/04/16 09:40:34;;;;;;;0.82;0.60;;;;;;;10.50;53.46;103577.06;4952850;28;20066;-76
2022/04/16 09:43:02;;;;;;;1.27;0.57;;;;;;;10.37;52.83;103575.16;4966843;28;20035;-76
2022/04/16 09:45:28;;;;;;;3.75;0.80;;;;;;;10.28;52.95;103565.91;4942355;28;20070;-75
2022/04/16 09:47:55;;;;;;;1.77;0.50;;;;;;;10.41;53.29;103569.66;4967669;28;20042;-73
2022/04/16 09:50:26;;;;;;;16.67;8.10;;;;;;;10.50;54.05;103569.19;4943841;28;20042;-75
2022/04/16 09:52:55;;;;;;;5.70;3.28;;;;;;;10.67;51.28;103570.13;4936031;28;20038;-76
2022/04/16 09:55:26;;;;;;;1.92;0.68;;;;;;;10.50;50.54;103563.94;4967029;28;20155;-77
2022/04/16 09:58:03;;;;;;;1.98;0.73;;;;;;;10.47;51.11;103565.88;4967409;28;20042;-75
2022/04/16 10:00:32;;;;;;;0.73;0.57;;;;;;;10.78;51.27;103574.84;4951115;28;20047;-76
2022/04/16 10:02:59;;;;;;;1.88;0.70;;;;;;;10.69;50.82;103568.28;4930320;28;20617;-76
2022/04/16 10:05:25;;;;;;;1.50;0.70;;;;;;;10.69;49.84;103577.00;4952520;28;20491;-75
2022/04/16 10:07:55;;;;;;;3.72;0.80;;;;;;;11.02;51.46;103568.31;4950399;28;20049;-78
2022/04/16 10:10:31;;;;;;;1.40;0.73;;;;;;;10.99;50.94;103568.47;4949957;28;20030;-75
2022/04/16 10:13:07;;;;;;;0.77;0.55;;;;;;;11.25;49.07;103563.63;4970199;28;20038;-75
2022/04/16 10:15:57;;;;;;;3.20;0.70;;;;;;;11.57;51.95;103567.16;4936312;28;20035;-76
2022/04/16 10:18:24;;;;;;;1.40;0.65;;;;;;;10.99;47.85;103567.63;4930391;28;20045;-76
2022/04/16 10:20:50;;;;;;;2.28;0.55;;;;;;;10.99;49.48;103555.34;4944113;28;20035;-75
2022/04/16 10:23:27;;;;;;;1.00;0.60;;;;;;;11.33;48.62;103558.81;4949699;28;20073;-76
2022/04/16 10:26:05;;;;;;;2.35;1.27;;;;;;;11.57;48.90;103550.53;4951524;28;20047;-77
2022/04/16 10:28:38;;;;;;;1.27;0.80;;;;;;;11.64;47.20;103559.75;4965168;28;20039;-76
2022/04/16 10:31:05;;;;;;;1.77;0.80;;;;;;;11.71;47.11;103552.38;4948769;28;20527;-76
2022/04/16 10:33:31;;;;;;;1.23;0.70;;;;;;;11.78;46.10;103564.25;4983115;28;20037;-76
2022/04/16 10:36:09;;;;;;;1.30;0.70;;;;;;;11.67;45.75;103555.19;4950744;28;20145;-75
2022/04/16 10:38:38;;;;;;;3.25;0.80;;;;;;;11.58;46.05;103552.22;4947923;29;20047;-76
2022/04/16 10:41:11;;;;;;;1.85;0.55;;;;;;;11.70;45.33;103548.91;4967841;28;20038;-77
2022/04/16 10:43:37;;;;;;;1.13;0.60;;;;;;;11.71;46.86;103550.59;4959882;28;20040;-76
2022/04/16 10:46:07;;;;;;;4.82;3.10;;;;;;;11.93;49.19;103549.44;4963040;28;20034;-75
2022/04/16 10:48:38;;;;;;;2.60;0.82;;;;;;;12.02;46.99;103554.19;4951942;28;20484;-75
2022/04/16 10:51:05;;;;;;;1.77;0.95;;;;;;;12.24;47.43;103548.50;4957244;28;20842;-76
2022/04/16 10:53:36;;;;;;;2.95;0.70;;;;;;;12.14;44.49;103563.16;4948418;28;20046;-77
2022/04/16 10:56:12;;;;;;;2.72;0.90;;;;;;;12.02;45.80;103555.03;4975980;28;20115;-77
2022/04/16 10:58:42;;;;;;;1.45;0.80;;;;;;;12.27;46.24;103546.56;4981494;28;20114;-76
2022/04/16 11:01:13;;;;;;;2.13;0.70;;;;;;;12.75;45.75;103550.78;4945455;28;20035;-77
2022/04/16 11:03:48;;;;;;;2.25;0.88;;;;;;;12.82;45.78;103544.22;4967503;28;20050;-77
2022/04/16 11:06:15;;;;;;;1.85;0.88;;;;;;;12.67;44.25;103543.34;4962851;28;20207;-77
2022/04/16 11:08:41;;;;;;;1.90;1.35;;;;;;;12.55;42.37;103546.75;4961316;28;20062;-76
2022/04/16 11:11:08;;;;;;;1.58;1.02;;;;;;;12.88;42.95;103546.47;4948779;28;20407;-77
2022/04/16 11:13:36;;;;;;;1.20;0.85;;;;;;;12.83;43.28;103546.78;4948404;29;20031;-76
2022/04/16 11:16:03;;;;;;;1.50;0.93;;;;;;;12.86;43.82;103537.81;4944479;28;20050;-77
2022/04/16 11:18:44;;;;;;;1.63;0.82;;;;;;;12.65;42.10;103547.88;4949069;28;20094;-78
2022/04/16 11:21:19;;;;;;;1.33;0.75;;;;;;;12.62;43.24;103534.88;4963165;28;20047;-77
2022/04/16 11:23:46;;;;;;;7.10;3.22;;;;;;;12.53;43.69;103538.09;4951017;28;20057;-77
2022/04/16 11:34:34;;;;;;;5.60;3.72;;;;;;;12.58;42.44;103547.41;4970609;28;20114;-75
2022/04/16 11:37:00;;;;;;;4.25;2.15;;;;;;;12.26;42.50;103538.75;4966747;28;20125;-75
2022/04/16 11:39:28;;;;;;;1.23;0.90;;;;;;;12.49;44.72;103531.28;4960472;28;20075;-76
2022/04/16 11:42:04;;;;;;;1.33;0.90;;;;;;;12.59;43.74;103527.19;4959131;28;20133;-75
2022/04/16 11:44:29;;;;;;;4.25;2.13;;;;;;;12.77;45.10;103530.47;4927432;29;20115;-77
2022/04/16 11:46:55;;;;;;;5.50;3.47;;;;;;;12.95;42.16;103529.34;4959320;28;20481;-76